Great Australia Day Swim
Skip Navigation Links
Race Results
Race Stats
26 Jan 2011
HyperLink
Page 1 of 2 (91 items)
[1]2
Pos
Race No
Fav
Name
Time
Category
Cat Pos
Gender
Gen Pos
1974Arthur KISELWIKOU00:03:4010yo1Male1
2924Kerrie SHARPLES00:03:4111yo1Female1
3978Tristen BELFIELD00:03:4910yo2Male2
4921Vanessa WILLIAMS00:03:5411yo2Female2
5928Tamara BANH00:04:0011yo3Female3
6957Oscar JONES00:04:0011yo1Male3
7929Jessica BALLEGGI00:04:0211yo4Female4
83163Zoe NESS00:04:0411yo5Female5
9967Liam MCLEOD00:04:0611yo2Male4
10955Alexander DE FINA00:04:0711yo3Male5
11959Nicholas GALILEOS00:04:0811yo4Male6
123087Jemima HUTTON00:04:0810yo1Female6
13909Talia BANH00:04:0910yo2Female7
14946Jake DUGGAN00:04:1210yo3Male7
15975Will PAYNTER00:04:1411yo5Male8
16966Jayden RACE00:04:1511yo6Male9
17934Matthew FAORO00:04:2210yo4Male10
183143Keith CRAWFORD00:04:2510yo5Male11
19956Matthew TEMPLE00:04:2711yo7Male12
20927Charlotte PITTARD00:04:2911yo6Female8
21912Holly SINCLAIR00:04:3310yo3Female9
22931Sophie APPEL00:04:3611yo7Female10
231000Andew COOPER00:04:3710yo6Male13
24965Bryce SHARPLES00:04:3811yo8Male14
25964Isaac SANDERSON00:04:4111yo9Male15
263104Eric CRAWFORD00:04:4410yo7Male16
273188Hamish HILL00:04:4510yo8Male17
28933Max VAUGHAN00:04:4610yo9Male18
29968Jacob MICHAELIDES00:04:4811yo10Male19
30925Michaela TATT00:04:5311yo8Female11
31993Adabell ESTMAN00:04:5311yo9Female12
323061Thomas PRECENDALL00:04:5510yo10Male20
33926Samantha TATT00:04:5611yo10Female13
34950Lotus JEFFS00:05:0010yo11Male21
35969James KERR00:05:0211yo11Male22
36949Pim OKHUIZEN00:05:0310yo12Male23
37998Alex GIBSON00:05:0310yo13Male24
38916Bridget PAWSEY00:05:0411yo11Female14
39952Mitchell RYAN00:05:1110yo14Male25
40935Josh noglett NOBLETT00:05:1310yo15Male26
41918Adele KINCSES00:05:1511yo12Female15
42919Emma NUNN00:05:1511yo13Female16
43970Bizun HIDER00:05:1811yo12Male27
443121Zac CORCORAN00:05:1810yo16Male28
45996Sarah DOBIE00:05:1910yo4Female17
46994Marcus SERONG00:05:2110yo17Male29
47954Nick CARROH00:05:2210yo18Male30
48911Sabrina BAKLIEN00:05:2410yo5Female18
49976Trent TEMPLE00:05:2910yo19Male31
50971Laughlin HOOPER00:05:3611yo13Male32
Page 1 of 2 (91 items)
[1]2
fb

HyperLink Copyright (c) G Vincent, 2018